sensor_id;sensor_type;location;lat;lon;timestamp;temperature;humidity
62589;DHT22;58504;48.770;9.148;2023-05-10T00:01:01;22.20;58.60
62589;DHT22;58504;48.770;9.148;2023-05-10T00:03:28;22.20;58.70
62589;DHT22;58504;48.770;9.148;2023-05-10T00:05:54;22.20;59.00
62589;DHT22;58504;48.770;9.148;2023-05-10T00:08:21;22.20;58.60
62589;DHT22;58504;48.770;9.148;2023-05-10T00:10:49;22.20;58.60
62589;DHT22;58504;48.770;9.148;2023-05-10T00:13:16;22.20;58.70
62589;DHT22;58504;48.770;9.148;2023-05-10T00:15:43;22.20;58.60
62589;DHT22;58504;48.770;9.148;2023-05-10T00:18:09;22.10;58.60
62589;DHT22;58504;48.770;9.148;2023-05-10T00:20:36;22.20;58.60
62589;DHT22;58504;48.770;9.148;2023-05-10T00:23:03;22.10;58.60
62589;DHT22;58504;48.770;9.148;2023-05-10T00:25:30;22.10;58.60
62589;DHT22;58504;48.770;9.148;2023-05-10T00:27:58;22.10;58.60
62589;DHT22;58504;48.770;9.148;2023-05-10T00:30:26;22.10;58.60
62589;DHT22;58504;48.770;9.148;2023-05-10T00:32:53;22.10;58.60
62589;DHT22;58504;48.770;9.148;2023-05-10T00:35:20;22.10;58.60
62589;DHT22;58504;48.770;9.148;2023-05-10T00:37:47;22.10;58.60
62589;DHT22;58504;48.770;9.148;2023-05-10T00:40:14;22.10;59.20
62589;DHT22;58504;48.770;9.148;2023-05-10T00:42:41;22.10;58.70
62589;DHT22;58504;48.770;9.148;2023-05-10T00:45:09;22.10;58.80
62589;DHT22;58504;48.770;9.148;2023-05-10T00:47:37;22.10;58.80
62589;DHT22;58504;48.770;9.148;2023-05-10T00:50:05;22.10;58.80
62589;DHT22;58504;48.770;9.148;2023-05-10T00:52:32;22.10;58.90
62589;DHT22;58504;48.770;9.148;2023-05-10T00:55:00;22.00;58.80
62589;DHT22;58504;48.770;9.148;2023-05-10T00:57:27;22.10;58.90
62589;DHT22;58504;48.770;9.148;2023-05-10T00:59:53;22.00;58.90
62589;DHT22;58504;48.770;9.148;2023-05-10T01:02:21;22.00;58.90
62589;DHT22;58504;48.770;9.148;2023-05-10T01:04:49;22.00;58.90
62589;DHT22;58504;48.770;9.148;2023-05-10T01:07:16;22.00;58.90
62589;DHT22;58504;48.770;9.148;2023-05-10T01:09:42;22.00;58.90
62589;DHT22;58504;48.770;9.148;2023-05-10T01:12:09;22.00;58.90
62589;DHT22;58504;48.770;9.148;2023-05-10T01:14:36;22.00;58.80
62589;DHT22;58504;48.770;9.148;2023-05-10T01:17:04;22.00;58.80
62589;DHT22;58504;48.770;9.148;2023-05-10T01:19:34;22.00;58.80
62589;DHT22;58504;48.770;9.148;2023-05-10T01:22:09;22.00;58.70
62589;DHT22;58504;48.770;9.148;2023-05-10T01:27:47;22.00;58.80
62589;DHT22;58504;48.770;9.148;2023-05-10T01:30:42;22.00;58.80
62589;DHT22;58504;48.770;9.148;2023-05-10T01:33:18;22.00;58.80
62589;DHT22;58504;48.770;9.148;2023-05-10T01:35:51;22.00;58.80
62589;DHT22;58504;48.770;9.148;2023-05-10T01:38:22;21.90;58.70
62589;DHT22;58504;48.770;9.148;2023-05-10T01:41:00;21.90;58.70
62589;DHT22;58504;48.770;9.148;2023-05-10T01:43:33;21.90;58.70
62589;DHT22;58504;48.770;9.148;2023-05-10T01:46:07;21.90;58.60
62589;DHT22;58504;48.770;9.148;2023-05-10T01:48:47;21.90;58.70
62589;DHT22;58504;48.770;9.148;2023-05-10T01:51:17;21.90;58.70
62589;DHT22;58504;48.770;9.148;2023-05-10T01:53:46;21.90;58.70
62589;DHT22;58504;48.770;9.148;2023-05-10T01:56:14;21.90;58.70
62589;DHT22;58504;48.770;9.148;2023-05-10T01:58:43;21.90;58.60
62589;DHT22;58504;48.770;9.148;2023-05-10T02:01:12;21.90;58.70
62589;DHT22;58504;48.770;9.148;2023-05-10T02:03:41;21.90;58.70
62589;DHT22;58504;48.770;9.148;2023-05-10T02:06:10;21.90;58.70
62589;DHT22;58504;48.770;9.148;2023-05-10T02:08:40;21.90;58.70
62589;DHT22;58504;48.770;9.148;2023-05-10T02:11:08;21.90;58.70
62589;DHT22;58504;48.770;9.148;2023-05-10T02:13:38;21.90;58.70
62589;DHT22;58504;48.770;9.148;2023-05-10T02:16:06;21.90;58.70
62589;DHT22;58504;48.770;9.148;2023-05-10T02:18:35;21.80;58.70
62589;DHT22;58504;48.770;9.148;2023-05-10T02:21:04;21.90;58.70
62589;DHT22;58504;48.770;9.148;2023-05-10T02:23:31;21.80;58.60
62589;DHT22;58504;48.770;9.148;2023-05-10T02:25:58;21.80;58.70
62589;DHT22;58504;48.770;9.148;2023-05-10T02:28:28;21.80;58.70
62589;DHT22;58504;48.770;9.148;2023-05-10T02:30:56;21.80;58.90
62589;DHT22;58504;48.770;9.148;2023-05-10T02:33:23;21.80;58.70
62589;DHT22;58504;48.770;9.148;2023-05-10T02:35:50;21.80;58.70
62589;DHT22;58504;48.770;9.148;2023-05-10T02:38:20;21.80;58.60
62589;DHT22;58504;48.770;9.148;2023-05-10T02:40:48;21.80;58.60
62589;DHT22;58504;48.770;9.148;2023-05-10T02:43:16;21.80;58.60
62589;DHT22;58504;48.770;9.148;2023-05-10T02:45:47;21.80;58.60
62589;DHT22;58504;48.770;9.148;2023-05-10T02:48:15;21.80;58.60
62589;DHT22;58504;48.770;9.148;2023-05-10T02:50:44;21.80;58.60
62589;DHT22;58504;48.770;9.148;2023-05-10T02:53:15;21.80;58.60
62589;DHT22;58504;48.770;9.148;2023-05-10T02:55:50;21.80;58.60
62589;DHT22;58504;48.770;9.148;2023-05-10T02:58:18;21.80;58.60
62589;DHT22;58504;48.770;9.148;2023-05-10T03:00:44;21.80;58.60
62589;DHT22;58504;48.770;9.148;2023-05-10T03:03:11;21.80;58.70
62589;DHT22;58504;48.770;9.148;2023-05-10T03:05:38;21.80;58.70
62589;DHT22;58504;48.770;9.148;2023-05-10T03:08:05;21.80;58.70
62589;DHT22;58504;48.770;9.148;2023-05-10T03:10:35;21.80;58.70
62589;DHT22;58504;48.770;9.148;2023-05-10T03:13:13;21.80;58.80
62589;DHT22;58504;48.770;9.148;2023-05-10T03:15:47;21.80;58.80
62589;DHT22;58504;48.770;9.148;2023-05-10T03:18:22;21.70;58.70
62589;DHT22;58504;48.770;9.148;2023-05-10T03:20:50;21.70;58.60
62589;DHT22;58504;48.770;9.148;2023-05-10T03:23:27;21.80;58.70
62589;DHT22;58504;48.770;9.148;2023-05-10T03:25:54;21.70;58.60
62589;DHT22;58504;48.770;9.148;2023-05-10T03:28:25;21.70;58.60
62589;DHT22;58504;48.770;9.148;2023-05-10T03:30:52;21.70;58.60
62589;DHT22;58504;48.770;9.148;2023-05-10T03:33:19;21.70;58.60
62589;DHT22;58504;48.770;9.148;2023-05-10T03:35:46;21.70;58.60
62589;DHT22;58504;48.770;9.148;2023-05-10T03:38:13;21.70;58.60
62589;DHT22;58504;48.770;9.148;2023-05-10T03:40:40;21.70;58.60
62589;DHT22;58504;48.770;9.148;2023-05-10T03:43:07;21.70;58.60
62589;DHT22;58504;48.770;9.148;2023-05-10T03:45:35;21.70;58.60
62589;DHT22;58504;48.770;9.148;2023-05-10T03:48:01;21.70;58.60
62589;DHT22;58504;48.770;9.148;2023-05-10T03:50:28;21.70;58.60
62589;DHT22;58504;48.770;9.148;2023-05-10T03:52:55;21.70;58.50
62589;DHT22;58504;48.770;9.148;2023-05-10T03:55:22;21.70;58.60
62589;DHT22;58504;48.770;9.148;2023-05-10T03:57:49;21.70;58.60
62589;DHT22;58504;48.770;9.148;2023-05-10T04:00:16;21.70;58.50
62589;DHT22;58504;48.770;9.148;2023-05-10T04:02:44;21.70;58.50
62589;DHT22;58504;48.770;9.148;2023-05-10T04:05:11;21.70;58.50
62589;DHT22;58504;48.770;9.148;2023-05-10T04:07:38;21.70;58.50
62589;DHT22;58504;48.770;9.148;2023-05-10T04:10:05;21.70;58.50
62589;DHT22;58504;48.770;9.148;2023-05-10T04:12:33;21.70;58.50
62589;DHT22;58504;48.770;9.148;2023-05-10T04:14:59;21.70;58.50
62589;DHT22;58504;48.770;9.148;2023-05-10T04:17:26;21.70;58.40
62589;DHT22;58504;48.770;9.148;2023-05-10T04:19:55;21.60;58.30
62589;DHT22;58504;48.770;9.148;2023-05-10T04:22:22;21.70;58.40
62589;DHT22;58504;48.770;9.148;2023-05-10T04:24:49;21.60;58.30
62589;DHT22;58504;48.770;9.148;2023-05-10T04:27:16;21.70;58.40
62589;DHT22;58504;48.770;9.148;2023-05-10T04:29:42;21.70;58.40
62589;DHT22;58504;48.770;9.148;2023-05-10T04:32:09;21.70;58.40
62589;DHT22;58504;48.770;9.148;2023-05-10T04:34:36;21.70;58.30
62589;DHT22;58504;48.770;9.148;2023-05-10T04:37:04;21.70;58.30
62589;DHT22;58504;48.770;9.148;2023-05-10T04:39:32;21.70;58.30
62589;DHT22;58504;48.770;9.148;2023-05-10T04:41:59;21.70;58.20
62589;DHT22;58504;48.770;9.148;2023-05-10T04:44:26;21.80;58.10
62589;DHT22;58504;48.770;9.148;2023-05-10T04:46:53;21.90;58.00
62589;DHT22;58504;48.770;9.148;2023-05-10T04:49:19;22.00;57.80
62589;DHT22;58504;48.770;9.148;2023-05-10T04:51:47;22.10;57.60
62589;DHT22;58504;48.770;9.148;2023-05-10T04:54:15;22.30;57.40
62589;DHT22;58504;48.770;9.148;2023-05-10T04:56:41;22.30;57.10
62589;DHT22;58504;48.770;9.148;2023-05-10T04:59:08;22.50;57.00
62589;DHT22;58504;48.770;9.148;2023-05-10T05:01:35;22.60;56.70
62589;DHT22;58504;48.770;9.148;2023-05-10T05:04:02;22.70;56.50
62589;DHT22;58504;48.770;9.148;2023-05-10T05:06:28;22.70;56.30
62589;DHT22;58504;48.770;9.148;2023-05-10T05:08:55;22.80;56.10
62589;DHT22;58504;48.770;9.148;2023-05-10T05:11:23;22.90;55.90
62589;DHT22;58504;48.770;9.148;2023-05-10T05:13:50;23.00;55.80
62589;DHT22;58504;48.770;9.148;2023-05-10T05:16:17;23.10;55.80
62589;DHT22;58504;48.770;9.148;2023-05-10T05:18:44;23.10;55.60
62589;DHT22;58504;48.770;9.148;2023-05-10T05:21:14;23.20;55.50
62589;DHT22;58504;48.770;9.148;2023-05-10T05:23:41;23.20;55.40
62589;DHT22;58504;48.770;9.148;2023-05-10T05:26:08;23.30;55.30
62589;DHT22;58504;48.770;9.148;2023-05-10T05:28:37;23.30;55.20
62589;DHT22;58504;48.770;9.148;2023-05-10T05:31:04;23.40;55.10
62589;DHT22;58504;48.770;9.148;2023-05-10T05:33:31;23.40;55.00
62589;DHT22;58504;48.770;9.148;2023-05-10T05:36:00;23.40;54.90
62589;DHT22;58504;48.770;9.148;2023-05-10T05:38:27;23.50;54.90
62589;DHT22;58504;48.770;9.148;2023-05-10T05:40:54;23.50;54.90
62589;DHT22;58504;48.770;9.148;2023-05-10T05:43:20;23.50;54.80
62589;DHT22;58504;48.770;9.148;2023-05-10T05:45:49;23.50;54.80
62589;DHT22;58504;48.770;9.148;2023-05-10T05:48:15;23.50;54.70
62589;DHT22;58504;48.770;9.148;2023-05-10T05:50:42;23.60;54.70
62589;DHT22;58504;48.770;9.148;2023-05-10T05:53:09;23.60;54.70
62589;DHT22;58504;48.770;9.148;2023-05-10T05:55:36;23.60;54.70
62589;DHT22;58504;48.770;9.148;2023-05-10T05:58:02;23.60;54.70
62589;DHT22;58504;48.770;9.148;2023-05-10T06:00:29;23.60;54.70
62589;DHT22;58504;48.770;9.148;2023-05-10T06:02:57;23.60;55.20
62589;DHT22;58504;48.770;9.148;2023-05-10T06:05:24;23.50;56.10
62589;DHT22;58504;48.770;9.148;2023-05-10T06:07:51;23.50;56.20
62589;DHT22;58504;48.770;9.148;2023-05-10T06:10:18;23.50;56.00
62589;DHT22;58504;48.770;9.148;2023-05-10T06:12:44;23.50;55.70
62589;DHT22;58504;48.770;9.148;2023-05-10T06:15:11;23.40;55.50
62589;DHT22;58504;48.770;9.148;2023-05-10T06:17:38;23.40;55.40
62589;DHT22;58504;48.770;9.148;2023-05-10T06:20:08;23.40;55.40
62589;DHT22;58504;48.770;9.148;2023-05-10T06:22:35;23.40;55.40
62589;DHT22;58504;48.770;9.148;2023-05-10T06:25:01;23.40;55.60
62589;DHT22;58504;48.770;9.148;2023-05-10T06:27:28;23.40;55.80
62589;DHT22;58504;48.770;9.148;2023-05-10T06:29:55;23.30;55.70
62589;DHT22;58504;48.770;9.148;2023-05-10T06:32:21;23.30;55.80
62589;DHT22;58504;48.770;9.148;2023-05-10T06:34:48;23.30;56.90
62589;DHT22;58504;48.770;9.148;2023-05-10T06:37:16;23.40;57.40
62589;DHT22;58504;48.770;9.148;2023-05-10T06:39:43;23.30;57.40
62589;DHT22;58504;48.770;9.148;2023-05-10T06:42:10;23.30;57.20
62589;DHT22;58504;48.770;9.148;2023-05-10T06:44:36;23.40;57.00
62589;DHT22;58504;48.770;9.148;2023-05-10T06:47:03;23.40;56.90
62589;DHT22;58504;48.770;9.148;2023-05-10T06:49:30;23.40;57.10
62589;DHT22;58504;48.770;9.148;2023-05-10T06:51:57;23.40;56.20
62589;DHT22;58504;48.770;9.148;2023-05-10T06:54:25;23.40;56.10
62589;DHT22;58504;48.770;9.148;2023-05-10T06:56:51;23.40;56.10
62589;DHT22;58504;48.770;9.148;2023-05-10T06:59:18;23.40;56.00
62589;DHT22;58504;48.770;9.148;2023-05-10T07:01:46;23.40;56.00
62589;DHT22;58504;48.770;9.148;2023-05-10T07:04:13;23.40;56.10
62589;DHT22;58504;48.770;9.148;2023-05-10T07:06:40;23.40;56.10
62589;DHT22;58504;48.770;9.148;2023-05-10T07:09:07;23.40;56.10
62589;DHT22;58504;48.770;9.148;2023-05-10T07:11:35;23.40;56.10
62589;DHT22;58504;48.770;9.148;2023-05-10T07:14:02;23.40;56.10
62589;DHT22;58504;48.770;9.148;2023-05-10T07:16:29;23.40;56.00
62589;DHT22;58504;48.770;9.148;2023-05-10T07:18:56;23.50;56.00
62589;DHT22;58504;48.770;9.148;2023-05-10T07:21:23;23.50;55.90
62589;DHT22;58504;48.770;9.148;2023-05-10T07:23:50;23.50;55.90
62589;DHT22;58504;48.770;9.148;2023-05-10T07:26:17;23.50;55.80
62589;DHT22;58504;48.770;9.148;2023-05-10T07:28:45;23.50;55.80
62589;DHT22;58504;48.770;9.148;2023-05-10T07:31:12;23.60;55.80
62589;DHT22;58504;48.770;9.148;2023-05-10T07:33:39;23.70;55.80
62589;DHT22;58504;48.770;9.148;2023-05-10T07:36:06;23.70;55.60
62589;DHT22;58504;48.770;9.148;2023-05-10T07:38:33;23.70;55.50
62589;DHT22;58504;48.770;9.148;2023-05-10T07:41:00;23.80;55.50
62589;DHT22;58504;48.770;9.148;2023-05-10T07:43:26;23.80;55.40
62589;DHT22;58504;48.770;9.148;2023-05-10T07:45:54;23.80;55.30
62589;DHT22;58504;48.770;9.148;2023-05-10T07:48:22;23.80;55.30
62589;DHT22;58504;48.770;9.148;2023-05-10T07:50:49;23.80;55.20
62589;DHT22;58504;48.770;9.148;2023-05-10T07:53:16;23.80;55.20
62589;DHT22;58504;48.770;9.148;2023-05-10T07:55:44;23.90;55.30
62589;DHT22;58504;48.770;9.148;2023-05-10T07:58:11;23.90;55.30
62589;DHT22;58504;48.770;9.148;2023-05-10T08:00:38;23.80;55.30
62589;DHT22;58504;48.770;9.148;2023-05-10T08:03:08;23.80;55.30
62589;DHT22;58504;48.770;9.148;2023-05-10T08:05:34;23.80;55.30
62589;DHT22;58504;48.770;9.148;2023-05-10T08:08:01;23.80;55.30
62589;DHT22;58504;48.770;9.148;2023-05-10T08:10:28;23.80;55.50
62589;DHT22;58504;48.770;9.148;2023-05-10T08:12:55;23.80;55.40
62589;DHT22;58504;48.770;9.148;2023-05-10T08:15:21;23.80;55.40
62589;DHT22;58504;48.770;9.148;2023-05-10T08:17:48;23.70;55.30
62589;DHT22;58504;48.770;9.148;2023-05-10T08:20:16;23.70;55.40
62589;DHT22;58504;48.770;9.148;2023-05-10T08:22:44;23.70;55.60
62589;DHT22;58504;48.770;9.148;2023-05-10T08:25:11;23.70;55.60
62589;DHT22;58504;48.770;9.148;2023-05-10T08:27:38;23.60;55.60
62589;DHT22;58504;48.770;9.148;2023-05-10T08:30:06;23.60;55.60
62589;DHT22;58504;48.770;9.148;2023-05-10T08:32:33;23.60;55.60
62589;DHT22;58504;48.770;9.148;2023-05-10T08:35:03;23.70;55.70
62589;DHT22;58504;48.770;9.148;2023-05-10T08:37:31;23.70;55.60
62589;DHT22;58504;48.770;9.148;2023-05-10T08:39:58;23.80;55.60
62589;DHT22;58504;48.770;9.148;2023-05-10T08:42:26;23.80;55.50
62589;DHT22;58504;48.770;9.148;2023-05-10T08:44:55;23.90;55.30
62589;DHT22;58504;48.770;9.148;2023-05-10T08:47:23;23.90;55.20
62589;DHT22;58504;48.770;9.148;2023-05-10T08:49:52;24.00;55.10
62589;DHT22;58504;48.770;9.148;2023-05-10T08:52:20;24.10;55.10
62589;DHT22;58504;48.770;9.148;2023-05-10T08:54:49;24.10;55.10
62589;DHT22;58504;48.770;9.148;2023-05-10T08:57:16;24.10;55.10
62589;DHT22;58504;48.770;9.148;2023-05-10T08:59:43;24.10;55.00
62589;DHT22;58504;48.770;9.148;2023-05-10T09:02:11;24.10;55.00
62589;DHT22;58504;48.770;9.148;2023-05-10T09:04:39;24.10;55.60
62589;DHT22;58504;48.770;9.148;2023-05-10T09:07:06;24.10;54.90
62589;DHT22;58504;48.770;9.148;2023-05-10T09:09:34;24.20;55.10
62589;DHT22;58504;48.770;9.148;2023-05-10T09:12:03;24.10;55.10
62589;DHT22;58504;48.770;9.148;2023-05-10T09:14:40;24.10;55.10
62589;DHT22;58504;48.770;9.148;2023-05-10T09:17:08;24.10;55.10
62589;DHT22;58504;48.770;9.148;2023-05-10T09:19:36;24.00;55.10
62589;DHT22;58504;48.770;9.148;2023-05-10T09:22:02;24.10;55.20
62589;DHT22;58504;48.770;9.148;2023-05-10T09:24:30;24.00;55.20
62589;DHT22;58504;48.770;9.148;2023-05-10T09:26:57;24.00;55.30
62589;DHT22;58504;48.770;9.148;2023-05-10T09:29:24;23.90;55.20
62589;DHT22;58504;48.770;9.148;2023-05-10T09:31:52;23.90;55.30
62589;DHT22;58504;48.770;9.148;2023-05-10T09:34:22;23.80;55.30
62589;DHT22;58504;48.770;9.148;2023-05-10T09:36:54;23.80;55.30
62589;DHT22;58504;48.770;9.148;2023-05-10T09:39:28;23.80;55.40
62589;DHT22;58504;48.770;9.148;2023-05-10T09:41:56;23.80;55.50
62589;DHT22;58504;48.770;9.148;2023-05-10T09:44:23;23.80;55.30
62589;DHT22;58504;48.770;9.148;2023-05-10T09:46:51;23.80;55.30
62589;DHT22;58504;48.770;9.148;2023-05-10T09:49:19;23.90;55.40
62589;DHT22;58504;48.770;9.148;2023-05-10T09:51:47;23.90;55.30
62589;DHT22;58504;48.770;9.148;2023-05-10T09:54:15;24.10;55.20
62589;DHT22;58504;48.770;9.148;2023-05-10T09:56:42;24.20;55.00
62589;DHT22;58504;48.770;9.148;2023-05-10T09:59:11;24.30;54.60
62589;DHT22;58504;48.770;9.148;2023-05-10T10:01:38;24.40;54.40
62589;DHT22;58504;48.770;9.148;2023-05-10T10:04:09;24.50;54.30
62589;DHT22;58504;48.770;9.148;2023-05-10T10:06:36;24.60;54.20
62589;DHT22;58504;48.770;9.148;2023-05-10T10:09:04;24.60;54.60
62589;DHT22;58504;48.770;9.148;2023-05-10T10:11:31;24.70;54.00
62589;DHT22;58504;48.770;9.148;2023-05-10T10:13:58;24.70;53.90
62589;DHT22;58504;48.770;9.148;2023-05-10T10:16:25;24.70;53.80
62589;DHT22;58504;48.770;9.148;2023-05-10T10:18:52;24.70;53.80
62589;DHT22;58504;48.770;9.148;2023-05-10T10:21:21;24.60;53.70
62589;DHT22;58504;48.770;9.148;2023-05-10T10:23:48;24.60;53.80
62589;DHT22;58504;48.770;9.148;2023-05-10T10:26:15;24.60;53.90
62589;DHT22;58504;48.770;9.148;2023-05-10T10:28:50;24.50;53.80
62589;DHT22;58504;48.770;9.148;2023-05-10T10:31:34;24.50;53.90
62589;DHT22;58504;48.770;9.148;2023-05-10T10:34:05;24.50;54.00
62589;DHT22;58504;48.770;9.148;2023-05-10T10:36:40;24.40;54.00
62589;DHT22;58504;48.770;9.148;2023-05-10T10:39:09;24.40;54.00
62589;DHT22;58504;48.770;9.148;2023-05-10T10:41:39;24.30;54.00
62589;DHT22;58504;48.770;9.148;2023-05-10T10:44:37;24.30;54.10
62589;DHT22;58504;48.770;9.148;2023-05-10T10:47:21;24.30;54.30
62589;DHT22;58504;48.770;9.148;2023-05-10T10:50:03;24.20;54.20
62589;DHT22;58504;48.770;9.148;2023-05-10T10:52:33;24.10;54.20
62589;DHT22;58504;48.770;9.148;2023-05-10T10:55:02;24.10;54.40
62589;DHT22;58504;48.770;9.148;2023-05-10T10:57:42;24.00;54.50
62589;DHT22;58504;48.770;9.148;2023-05-10T11:00:26;24.00;54.50
62589;DHT22;58504;48.770;9.148;2023-05-10T11:02:56;23.90;54.60
62589;DHT22;58504;48.770;9.148;2023-05-10T11:08:16;23.80;54.60
62589;DHT22;58504;48.770;9.148;2023-05-10T11:11:01;23.80;54.70
62589;DHT22;58504;48.770;9.148;2023-05-10T11:13:32;23.80;55.10
62589;DHT22;58504;48.770;9.148;2023-05-10T11:16:10;23.80;55.20
62589;DHT22;58504;48.770;9.148;2023-05-10T11:18:37;23.80;55.20
62589;DHT22;58504;48.770;9.148;2023-05-10T11:21:04;23.80;54.50
62589;DHT22;58504;48.770;9.148;2023-05-10T11:23:47;23.80;52.00
62589;DHT22;58504;48.770;9.148;2023-05-10T11:26:14;23.70;49.20
62589;DHT22;58504;48.770;9.148;2023-05-10T11:28:41;23.70;49.70
62589;DHT22;58504;48.770;9.148;2023-05-10T11:31:08;23.40;48.40
62589;DHT22;58504;48.770;9.148;2023-05-10T11:33:42;23.60;48.70
62589;DHT22;58504;48.770;9.148;2023-05-10T11:36:11;23.70;48.40
62589;DHT22;58504;48.770;9.148;2023-05-10T11:38:39;23.70;48.60
62589;DHT22;58504;48.770;9.148;2023-05-10T11:41:08;23.80;48.50
62589;DHT22;58504;48.770;9.148;2023-05-10T11:43:35;23.80;48.20
62589;DHT22;58504;48.770;9.148;2023-05-10T11:46:04;23.80;48.00
62589;DHT22;58504;48.770;9.148;2023-05-10T11:48:31;23.80;48.50
62589;DHT22;58504;48.770;9.148;2023-05-10T11:50:57;23.80;50.00
62589;DHT22;58504;48.770;9.148;2023-05-10T11:53:26;23.80;51.20
62589;DHT22;58504;48.770;9.148;2023-05-10T11:55:54;23.80;51.70
62589;DHT22;58504;48.770;9.148;2023-05-10T11:58:23;23.80;52.10
62589;DHT22;58504;48.770;9.148;2023-05-10T12:00:50;23.80;52.50
62589;DHT22;58504;48.770;9.148;2023-05-10T12:03:17;23.70;52.60
62589;DHT22;58504;48.770;9.148;2023-05-10T12:05:44;23.70;52.70
62589;DHT22;58504;48.770;9.148;2023-05-10T12:08:12;23.70;52.90
62589;DHT22;58504;48.770;9.148;2023-05-10T12:10:38;23.70;53.00
62589;DHT22;58504;48.770;9.148;2023-05-10T12:13:11;23.70;53.00
62589;DHT22;58504;48.770;9.148;2023-05-10T12:15:38;23.70;53.20
62589;DHT22;58504;48.770;9.148;2023-05-10T12:18:05;23.70;53.40
62589;DHT22;58504;48.770;9.148;2023-05-10T12:20:32;23.70;53.40
62589;DHT22;58504;48.770;9.148;2023-05-10T12:22:58;23.70;53.50
62589;DHT22;58504;48.770;9.148;2023-05-10T12:25:30;23.80;53.50
62589;DHT22;58504;48.770;9.148;2023-05-10T12:27:59;23.70;53.50
62589;DHT22;58504;48.770;9.148;2023-05-10T12:30:29;23.70;53.50
62589;DHT22;58504;48.770;9.148;2023-05-10T12:33:00;23.70;53.60
62589;DHT22;58504;48.770;9.148;2023-05-10T12:35:30;23.70;53.50
62589;DHT22;58504;48.770;9.148;2023-05-10T12:37:56;23.70;53.30
62589;DHT22;58504;48.770;9.148;2023-05-10T12:40:23;23.70;53.40
62589;DHT22;58504;48.770;9.148;2023-05-10T12:42:50;23.80;53.40
62589;DHT22;58504;48.770;9.148;2023-05-10T12:45:17;23.70;53.30
62589;DHT22;58504;48.770;9.148;2023-05-10T12:47:45;23.80;53.50
62589;DHT22;58504;48.770;9.148;2023-05-10T12:50:12;23.80;53.60
62589;DHT22;58504;48.770;9.148;2023-05-10T12:52:39;23.80;53.60
62589;DHT22;58504;48.770;9.148;2023-05-10T12:55:06;23.70;53.40
62589;DHT22;58504;48.770;9.148;2023-05-10T12:57:33;23.70;53.40
62589;DHT22;58504;48.770;9.148;2023-05-10T13:00:00;23.70;53.60
62589;DHT22;58504;48.770;9.148;2023-05-10T13:02:27;23.60;53.60
62589;DHT22;58504;48.770;9.148;2023-05-10T13:04:55;23.60;53.60
62589;DHT22;58504;48.770;9.148;2023-05-10T13:07:22;23.50;53.70
62589;DHT22;58504;48.770;9.148;2023-05-10T13:09:48;23.50;53.90
62589;DHT22;58504;48.770;9.148;2023-05-10T13:12:15;23.50;54.00
62589;DHT22;58504;48.770;9.148;2023-05-10T13:14:42;23.50;54.00
62589;DHT22;58504;48.770;9.148;2023-05-10T13:17:08;23.40;54.10
62589;DHT22;58504;48.770;9.148;2023-05-10T13:19:35;23.40;54.10
62589;DHT22;58504;48.770;9.148;2023-05-10T13:22:03;23.40;54.10
62589;DHT22;58504;48.770;9.148;2023-05-10T13:24:30;23.40;54.20
62589;DHT22;58504;48.770;9.148;2023-05-10T13:26:57;23.40;54.20
62589;DHT22;58504;48.770;9.148;2023-05-10T13:29:24;23.40;54.20
62589;DHT22;58504;48.770;9.148;2023-05-10T13:31:51;23.50;54.20
62589;DHT22;58504;48.770;9.148;2023-05-10T13:34:18;23.50;54.20
62589;DHT22;58504;48.770;9.148;2023-05-10T13:36:46;23.50;54.10
62589;DHT22;58504;48.770;9.148;2023-05-10T13:39:15;23.50;54.20
62589;DHT22;58504;48.770;9.148;2023-05-10T13:41:42;23.50;54.30
62589;DHT22;58504;48.770;9.148;2023-05-10T13:44:11;23.40;54.20
62589;DHT22;58504;48.770;9.148;2023-05-10T13:46:38;23.40;54.30
62589;DHT22;58504;48.770;9.148;2023-05-10T13:49:04;23.40;54.30
62589;DHT22;58504;48.770;9.148;2023-05-10T13:51:31;23.40;54.50
62589;DHT22;58504;48.770;9.148;2023-05-10T13:53:58;23.30;54.30
62589;DHT22;58504;48.770;9.148;2023-05-10T13:56:26;23.30;54.30
62589;DHT22;58504;48.770;9.148;2023-05-10T13:58:53;23.40;54.60
62589;DHT22;58504;48.770;9.148;2023-05-10T14:01:20;23.30;54.50
62589;DHT22;58504;48.770;9.148;2023-05-10T14:03:47;23.30;54.50
62589;DHT22;58504;48.770;9.148;2023-05-10T14:06:13;23.30;54.50
62589;DHT22;58504;48.770;9.148;2023-05-10T14:08:40;23.30;54.50
62589;DHT22;58504;48.770;9.148;2023-05-10T14:11:07;23.40;54.60
62589;DHT22;58504;48.770;9.148;2023-05-10T14:13:35;23.30;54.50
62589;DHT22;58504;48.770;9.148;2023-05-10T14:16:02;23.30;54.50
62589;DHT22;58504;48.770;9.148;2023-05-10T14:18:29;23.40;54.50
62589;DHT22;58504;48.770;9.148;2023-05-10T14:20:56;23.40;54.50
62589;DHT22;58504;48.770;9.148;2023-05-10T14:23:22;23.40;54.50
62589;DHT22;58504;48.770;9.148;2023-05-10T14:25:50;23.40;54.50
62589;DHT22;58504;48.770;9.148;2023-05-10T14:28:17;23.40;54.50
62589;DHT22;58504;48.770;9.148;2023-05-10T14:30:47;23.40;54.60
62589;DHT22;58504;48.770;9.148;2023-05-10T14:33:13;23.40;54.60
62589;DHT22;58504;48.770;9.148;2023-05-10T14:35:40;23.40;54.60
62589;DHT22;58504;48.770;9.148;2023-05-10T14:38:07;23.30;54.40
62589;DHT22;58504;48.770;9.148;2023-05-10T14:40:34;23.30;54.50
62589;DHT22;58504;48.770;9.148;2023-05-10T14:43:01;23.40;54.60
62589;DHT22;58504;48.770;9.148;2023-05-10T14:45:28;23.30;54.60
62589;DHT22;58504;48.770;9.148;2023-05-10T14:47:56;23.40;54.80
62589;DHT22;58504;48.770;9.148;2023-05-10T14:50:23;23.40;54.70
62589;DHT22;58504;48.770;9.148;2023-05-10T14:52:50;23.40;54.70
62589;DHT22;58504;48.770;9.148;2023-05-10T14:55:17;23.40;54.70
62589;DHT22;58504;48.770;9.148;2023-05-10T14:57:44;23.30;54.60
62589;DHT22;58504;48.770;9.148;2023-05-10T15:00:13;23.30;54.40
62589;DHT22;58504;48.770;9.148;2023-05-10T15:02:41;23.40;53.80
62589;DHT22;58504;48.770;9.148;2023-05-10T15:05:09;23.40;52.70
62589;DHT22;58504;48.770;9.148;2023-05-10T15:07:36;23.40;52.40
62589;DHT22;58504;48.770;9.148;2023-05-10T15:10:04;23.40;52.70
62589;DHT22;58504;48.770;9.148;2023-05-10T15:12:31;23.40;53.10
62589;DHT22;58504;48.770;9.148;2023-05-10T15:14:57;23.40;53.40
62589;DHT22;58504;48.770;9.148;2023-05-10T15:17:24;23.40;53.50
62589;DHT22;58504;48.770;9.148;2023-05-10T15:19:51;23.40;53.70
62589;DHT22;58504;48.770;9.148;2023-05-10T15:22:19;23.40;53.70
62589;DHT22;58504;48.770;9.148;2023-05-10T15:24:46;23.40;53.80
62589;DHT22;58504;48.770;9.148;2023-05-10T15:27:13;23.30;53.90
62589;DHT22;58504;48.770;9.148;2023-05-10T15:29:40;23.30;53.80
62589;DHT22;58504;48.770;9.148;2023-05-10T15:32:07;23.30;53.90
62589;DHT22;58504;48.770;9.148;2023-05-10T15:34:34;23.30;54.00
62589;DHT22;58504;48.770;9.148;2023-05-10T15:37:01;23.30;54.40
62589;DHT22;58504;48.770;9.148;2023-05-10T15:39:29;23.30;54.50
62589;DHT22;58504;48.770;9.148;2023-05-10T15:41:58;23.30;55.10